createdAt,value
2018-04-22T00:18:52.244Z,81.86
2018-04-22T00:39:24.753Z,81.50
2018-04-22T01:00:01.923Z,81.87
2018-04-22T01:20:37.152Z,83.33
2018-04-22T01:41:11.190Z,82.69
2018-04-22T02:01:44.307Z,84.08
2018-04-22T02:22:19.579Z,83.93
2018-04-22T02:42:53.627Z,84.65
2018-04-22T03:03:28.888Z,85.43
2018-04-22T03:24:02.012Z,85.68
2018-04-22T03:44:34.210Z,85.40
2018-04-22T04:05:09.914Z,86.47
2018-04-22T04:26:01.038Z,85.91
2018-04-22T04:46:36.535Z,87.66
2018-04-22T05:07:11.581Z,87.53
2018-04-22T05:27:45.982Z,87.03
2018-04-22T05:48:19.972Z,86.79
2018-04-22T06:08:55.251Z,83.69
2018-04-22T06:29:29.826Z,82.40
2018-04-22T06:50:03.645Z,80.82
2018-04-22T07:10:38.105Z,79.16
2018-04-22T07:31:11.114Z,77.24
2018-04-22T07:51:45.164Z,73.65
2018-04-22T08:12:19.505Z,71.38
2018-04-22T08:32:53.986Z,67.60
2018-04-22T08:53:35.889Z,64.46
2018-04-22T09:14:11.505Z,62.87
2018-04-22T09:34:43.369Z,59.31
2018-04-22T09:55:17.719Z,53.40
2018-04-22T10:15:57.193Z,51.50
2018-04-22T10:36:34.444Z,47.33
2018-04-22T10:57:05.369Z,45.88
2018-04-22T11:17:42.794Z,44.57
2018-04-22T11:38:15.916Z,41.74
2018-04-22T11:58:49.048Z,38.54
2018-04-22T12:19:22.164Z,36.94
2018-04-22T12:39:55.591Z,35.54
2018-04-22T13:00:27.789Z,37.39
2018-04-22T13:21:00.911Z,39.38
2018-04-22T13:41:33.345Z,39.08
2018-04-22T14:02:05.317Z,37.80
2018-04-22T14:22:40.585Z,34.30
2018-04-22T14:43:13.704Z,35.69
2018-04-22T15:03:47.748Z,36.64
2018-04-22T15:24:23.025Z,36.07
2018-04-22T15:44:57.378Z,29.96
2018-04-22T16:05:32.645Z,32.48
2018-04-22T16:26:05.767Z,34.66
2018-04-22T16:46:38.295Z,36.23
2018-04-22T17:07:14.168Z,36.50
2018-04-22T17:27:49.766Z,37.78
2018-04-22T17:48:22.972Z,38.75
2018-04-22T18:08:59.229Z,43.94
2018-04-22T18:29:30.953Z,48.23
2018-04-22T18:50:05.633Z,51.61
2018-04-22T19:10:37.504Z,54.03
2018-04-22T19:31:08.780Z,55.81
2018-04-22T19:51:41.903Z,57.89
2018-04-22T20:12:16.254Z,60.15
2018-04-22T20:32:48.452Z,62.20
2018-04-22T20:53:23.073Z,64.03
2018-04-22T21:13:56.860Z,65.98
2018-04-22T21:34:29.051Z,67.37
2018-04-22T21:55:03.516Z,67.00
2018-04-22T22:15:33.448Z,69.04
2018-04-22T22:36:05.652Z,71.26
2018-04-22T22:56:41.124Z,73.10
2018-04-22T23:17:15.890Z,72.10
2018-04-22T23:37:50.240Z,72.89
2018-04-22T23:58:25.512Z,74.57
